createdAt,value
2018-07-13T00:00:41.551Z,71.14
2018-07-13T00:03:09.452Z,71.39
2018-07-13T00:05:37.387Z,71.59
2018-07-13T00:08:05.726Z,70.92
2018-07-13T00:10:33.707Z,71.22
2018-07-13T00:13:01.782Z,71.70
2018-07-13T00:15:30.338Z,71.87
2018-07-13T00:17:58.434Z,71.63
2018-07-13T00:20:26.468Z,72.30
2018-07-13T00:22:54.455Z,72.73
2018-07-13T00:25:22.404Z,72.94
2018-07-13T00:27:50.413Z,73.01
2018-07-13T00:30:18.318Z,74.01
2018-07-13T00:32:46.640Z,74.54
2018-07-13T00:35:14.634Z,74.86
2018-07-13T00:37:42.566Z,74.74
2018-07-13T00:40:10.798Z,75.43
2018-07-13T00:42:38.769Z,75.32
2018-07-13T00:45:06.717Z,75.07
2018-07-13T00:47:34.672Z,75.19
2018-07-13T00:50:02.727Z,75.29
2018-07-13T00:52:30.641Z,74.78
2018-07-13T00:54:58.602Z,75.54
2018-07-13T00:57:26.509Z,76.12
2018-07-13T00:59:54.429Z,76.01
2018-07-13T01:02:22.330Z,75.63
2018-07-13T01:04:50.322Z,76.13
2018-07-13T01:07:18.350Z,75.81
2018-07-13T01:09:46.334Z,76.29
2018-07-13T01:12:14.291Z,75.85
2018-07-13T01:14:42.502Z,76.06
2018-07-13T01:17:10.520Z,76.56
2018-07-13T01:19:38.455Z,75.78
2018-07-13T01:22:06.643Z,76.78
2018-07-13T01:24:34.594Z,76.75
2018-07-13T01:27:02.470Z,77.09
2018-07-13T01:29:30.442Z,76.83
2018-07-13T01:31:58.501Z,77.33
2018-07-13T01:34:26.549Z,76.95
2018-07-13T01:36:54.565Z,77.00
2018-07-13T01:39:22.542Z,76.90
2018-07-13T01:41:50.531Z,77.67
2018-07-13T01:44:18.525Z,77.66
2018-07-13T01:46:46.424Z,77.34
2018-07-13T01:49:15.089Z,76.78
2018-07-13T01:51:43.013Z,77.29
2018-07-13T01:54:10.932Z,77.16
2018-07-13T01:56:39.938Z,76.66
2018-07-13T01:59:07.970Z,77.09
2018-07-13T02:01:35.914Z,76.45
2018-07-13T02:04:03.855Z,75.76
2018-07-13T02:06:31.763Z,76.23
2018-07-13T02:08:59.710Z,76.12
2018-07-13T02:11:27.702Z,75.15
2018-07-13T02:13:55.677Z,75.87
2018-07-13T02:16:23.725Z,75.76
2018-07-13T02:18:51.642Z,75.93
2018-07-13T02:21:19.543Z,76.09
2018-07-13T02:23:47.469Z,75.82
2018-07-13T02:26:15.373Z,75.82
2018-07-13T02:28:43.326Z,75.93
2018-07-13T02:31:11.245Z,76.50
2018-07-13T02:33:39.258Z,76.71
2018-07-13T02:36:07.188Z,76.61
2018-07-13T02:38:35.408Z,77.18
2018-07-13T02:41:03.325Z,78.01
2018-07-13T02:43:31.588Z,77.33
2018-07-13T02:45:59.510Z,78.24
2018-07-13T02:48:27.459Z,77.22
2018-07-13T02:50:55.340Z,77.38
2018-07-13T02:53:23.285Z,77.31
2018-07-13T02:55:51.208Z,77.56
2018-07-13T02:58:19.174Z,77.67
2018-07-13T03:00:47.134Z,77.94
2018-07-13T03:03:15.146Z,77.34
2018-07-13T03:05:43.386Z,77.95
2018-07-13T03:08:11.323Z,78.47
2018-07-13T03:10:39.285Z,77.61
2018-07-13T03:13:07.245Z,77.62
2018-07-13T03:15:35.889Z,78.37
2018-07-13T03:18:03.812Z,77.94
2018-07-13T03:20:31.767Z,77.37
2018-07-13T03:22:59.722Z,77.66
2018-07-13T03:25:27.823Z,78.04
2018-07-13T03:27:56.761Z,77.89
2018-07-13T03:30:24.811Z,77.82
2018-07-13T03:32:52.814Z,77.15
2018-07-13T03:35:20.740Z,76.76
2018-07-13T03:37:48.622Z,77.06
2018-07-13T03:40:16.564Z,76.31
2018-07-13T03:42:44.545Z,76.63
2018-07-13T03:45:12.585Z,76.22
2018-07-13T03:47:40.606Z,76.46
2018-07-13T03:50:08.812Z,75.78
2018-07-13T03:52:36.769Z,75.48
2018-07-13T03:55:05.647Z,75.44
2018-07-13T03:57:33.706Z,75.09
2018-07-13T04:00:01.837Z,75.51
2018-07-13T04:02:29.860Z,75.44
2018-07-13T04:04:57.886Z,75.59
2018-07-13T04:07:25.840Z,75.32
2018-07-13T04:09:53.719Z,74.39
2018-07-13T04:12:21.666Z,75.09
2018-07-13T04:14:49.824Z,74.96
2018-07-13T04:17:17.813Z,74.73
2018-07-13T04:19:45.700Z,74.56
2018-07-13T04:22:13.702Z,74.48
2018-07-13T04:24:41.832Z,74.42
2018-07-13T04:27:10.064Z,73.56
2018-07-13T04:29:38.106Z,73.57
2018-07-13T04:32:06.263Z,73.74
2018-07-13T04:34:34.358Z,73.69
2018-07-13T04:37:02.368Z,73.45
2018-07-13T04:39:30.372Z,72.89
2018-07-13T04:41:58.302Z,72.55
2018-07-13T04:44:26.331Z,72.40
2018-07-13T04:46:54.490Z,71.67
2018-07-13T04:49:22.565Z,71.58
2018-07-13T04:51:50.902Z,71.90
2018-07-13T04:54:19.062Z,72.26
2018-07-13T04:56:47.204Z,71.26
2018-07-13T04:59:15.376Z,71.50
2018-07-13T05:01:43.517Z,71.26
2018-07-13T05:04:12.100Z,70.04
2018-07-13T05:06:40.891Z,69.14
2018-07-13T05:09:09.200Z,68.34
2018-07-13T05:11:37.254Z,68.35
2018-07-13T05:14:05.270Z,67.31
2018-07-13T05:16:33.490Z,66.61
2018-07-13T05:19:01.477Z,64.70
2018-07-13T05:21:29.643Z,61.89
2018-07-13T05:23:58.138Z,61.23
2018-07-13T05:26:26.742Z,61.80
2018-07-13T05:28:54.957Z,60.55
2018-07-13T05:31:23.118Z,60.25
2018-07-13T05:33:51.390Z,60.78
2018-07-13T05:36:19.479Z,60.28
2018-07-13T05:38:47.682Z,60.82
2018-07-13T05:41:15.930Z,61.73
2018-07-13T05:43:44.083Z,60.68
2018-07-13T05:46:12.646Z,59.34
2018-07-13T05:48:41.058Z,60.01
2018-07-13T05:51:09.135Z,58.99
2018-07-13T05:53:37.382Z,58.86
2018-07-13T05:56:05.987Z,59.74
2018-07-13T05:58:34.288Z,56.76
2018-07-13T06:01:02.441Z,56.25
2018-07-13T06:03:30.717Z,58.65
2018-07-13T06:05:58.986Z,60.06
2018-07-13T06:08:28.815Z,59.58
2018-07-13T06:10:57.210Z,58.61
2018-07-13T06:13:25.215Z,59.27
2018-07-13T06:15:53.156Z,58.65
2018-07-13T06:18:21.086Z,59.76
2018-07-13T06:20:49.087Z,58.35
2018-07-13T06:23:16.954Z,58.41
2018-07-13T06:25:45.107Z,57.48
2018-07-13T06:28:13.118Z,56.57
2018-07-13T06:30:41.078Z,56.68
2018-07-13T06:33:09.215Z,57.18
2018-07-13T06:35:37.243Z,56.34
2018-07-13T06:38:05.572Z,57.68
2018-07-13T06:40:33.631Z,56.93
2018-07-13T06:43:01.651Z,58.29
2018-07-13T06:45:30.539Z,57.00
2018-07-13T06:47:58.597Z,57.65
2018-07-13T06:50:26.740Z,56.73
2018-07-13T06:52:55.302Z,57.13
2018-07-13T06:55:23.393Z,56.18
2018-07-13T06:58:02.485Z,56.50
2018-07-13T07:01:08.530Z,57.65
2018-07-13T07:03:41.674Z,57.42
2018-07-13T07:06:12.529Z,55.86
2018-07-13T07:08:49.421Z,55.18
2018-07-13T07:11:19.451Z,54.33
2018-07-13T07:13:47.692Z,53.47
2018-07-13T07:16:15.710Z,53.26
2018-07-13T07:18:43.687Z,53.75
2018-07-13T07:21:12.356Z,53.80
2018-07-13T07:23:40.431Z,53.64
2018-07-13T07:26:08.521Z,53.06
2018-07-13T07:28:36.425Z,53.18
2018-07-13T07:31:04.553Z,51.79
2018-07-13T07:33:32.467Z,53.61
2018-07-13T07:36:00.895Z,53.16
2018-07-13T07:38:30.020Z,52.46
2018-07-13T07:40:58.589Z,52.60
2018-07-13T07:43:26.876Z,52.54
2018-07-13T07:45:55.223Z,53.39
2018-07-13T07:48:23.359Z,53.38
2018-07-13T07:50:52.186Z,53.62
2018-07-13T07:53:21.033Z,53.09
2018-07-13T07:55:49.102Z,53.12
2018-07-13T07:58:18.125Z,53.65
2018-07-13T08:00:46.457Z,53.08
2018-07-13T08:03:15.000Z,53.43
2018-07-13T08:05:42.967Z,53.90
2018-07-13T08:08:10.937Z,53.22
2018-07-13T08:10:38.931Z,53.97
2018-07-13T08:13:07.853Z,54.20
2018-07-13T08:15:35.926Z,51.80
2018-07-13T08:18:03.933Z,52.79
2018-07-13T08:20:35.477Z,52.96
2018-07-13T08:23:08.477Z,52.70
2018-07-13T08:25:38.145Z,53.13
2018-07-13T08:28:07.547Z,52.08
2018-07-13T08:30:41.297Z,52.64
2018-07-13T08:33:11.167Z,52.65
2018-07-13T08:35:39.279Z,52.36
2018-07-13T08:38:08.284Z,52.97
2018-07-13T08:40:36.447Z,53.12
2018-07-13T08:43:04.651Z,52.09
2018-07-13T08:45:49.416Z,52.34
2018-07-13T08:48:17.524Z,53.37
2018-07-13T08:50:47.612Z,51.99
2018-07-13T08:53:16.298Z,52.43
2018-07-13T08:55:44.531Z,52.08
2018-07-13T08:58:13.282Z,51.75
2018-07-13T09:00:42.202Z,50.85
2018-07-13T09:03:10.157Z,51.25
2018-07-13T09:05:38.633Z,50.84
2018-07-13T09:08:06.766Z,50.91
2018-07-13T09:10:34.992Z,51.30
2018-07-13T09:13:03.347Z,50.89
2018-07-13T09:15:31.604Z,50.83
2018-07-13T09:18:00.104Z,50.48
2018-07-13T09:20:28.255Z,49.89
2018-07-13T09:22:56.235Z,50.20
2018-07-13T09:25:24.273Z,50.11
2018-07-13T09:27:53.018Z,49.36
2018-07-13T09:30:21.160Z,49.17
2018-07-13T09:32:49.149Z,49.82
2018-07-13T09:35:17.828Z,49.37
2018-07-13T09:37:45.890Z,48.32
2018-07-13T09:40:14.094Z,49.06
2018-07-13T09:42:48.939Z,46.76
2018-07-13T09:45:16.975Z,48.38
2018-07-13T09:47:45.131Z,48.93
2018-07-13T09:50:19.992Z,48.86
2018-07-13T09:52:48.238Z,50.54
2018-07-13T09:55:16.366Z,48.89
2018-07-13T09:57:44.491Z,47.54
2018-07-13T10:00:13.270Z,48.53
2018-07-13T10:02:41.588Z,48.99
2018-07-13T10:05:09.931Z,49.78
2018-07-13T10:07:39.844Z,49.39
2018-07-13T10:10:08.856Z,49.12
2018-07-13T10:12:38.530Z,49.00
2018-07-13T10:15:07.097Z,48.75
2018-07-13T10:17:35.351Z,49.76
2018-07-13T10:20:03.637Z,49.15
2018-07-13T10:22:32.823Z,49.02
2018-07-13T10:25:02.927Z,49.26
2018-07-13T10:27:34.725Z,47.93
2018-07-13T10:30:06.636Z,48.09
2018-07-13T10:32:36.388Z,49.12
2018-07-13T10:35:07.513Z,46.05
2018-07-13T10:37:35.722Z,47.65
2018-07-13T10:40:03.768Z,47.94
2018-07-13T10:42:32.547Z,46.82
2018-07-13T10:45:00.599Z,46.82
2018-07-13T10:47:28.630Z,46.87
2018-07-13T10:49:56.590Z,47.82
2018-07-13T10:52:24.566Z,46.29
2018-07-13T10:54:52.519Z,47.01
2018-07-13T10:57:20.750Z,47.20
2018-07-13T10:59:48.751Z,47.64
2018-07-13T11:02:16.825Z,46.79
2018-07-13T11:04:44.743Z,46.90
2018-07-13T11:07:12.694Z,44.92
2018-07-13T11:09:40.670Z,45.01
2018-07-13T11:12:08.674Z,43.87
2018-07-13T11:14:37.842Z,45.07
2018-07-13T11:17:05.772Z,45.84
2018-07-13T11:19:33.714Z,43.72
2018-07-13T11:22:01.851Z,45.50
2018-07-13T11:24:29.791Z,44.68
2018-07-13T11:26:57.753Z,45.08
2018-07-13T11:29:25.816Z,45.43
2018-07-13T11:31:53.753Z,43.71
2018-07-13T11:34:21.664Z,41.75
2018-07-13T11:36:49.661Z,43.16
2018-07-13T11:39:17.598Z,44.10
2018-07-13T11:41:45.518Z,44.57
2018-07-13T11:44:13.512Z,43.98
2018-07-13T11:46:42.915Z,44.85
2018-07-13T11:49:13.592Z,43.10
2018-07-13T11:51:41.652Z,44.08
2018-07-13T11:54:09.585Z,44.05
2018-07-13T11:56:37.727Z,44.60
2018-07-13T11:59:06.869Z,44.36
2018-07-13T12:01:36.122Z,44.20
2018-07-13T12:04:04.476Z,42.47
2018-07-13T12:06:32.452Z,42.41
2018-07-13T12:09:00.913Z,42.64
2018-07-13T12:11:28.932Z,43.13
2018-07-13T12:13:56.911Z,43.44
2018-07-13T12:16:25.501Z,44.32
2018-07-13T12:18:53.444Z,42.64
2018-07-13T12:21:21.591Z,43.24
2018-07-13T12:23:49.572Z,43.10
2018-07-13T12:26:17.941Z,42.81
2018-07-13T12:28:45.885Z,42.12
2018-07-13T12:31:14.329Z,42.83
2018-07-13T12:33:42.290Z,43.90
2018-07-13T12:36:10.446Z,43.34
2018-07-13T12:38:38.616Z,43.67
2018-07-13T12:41:06.641Z,43.48
2018-07-13T12:43:34.648Z,43.76
2018-07-13T12:46:02.661Z,41.51
2018-07-13T12:48:30.597Z,40.52
2018-07-13T12:50:58.635Z,39.55
2018-07-13T12:53:26.623Z,38.37
2018-07-13T12:55:54.595Z,38.65
2018-07-13T12:58:22.521Z,37.62
2018-07-13T13:00:50.453Z,38.05
2018-07-13T13:03:18.480Z,39.11
2018-07-13T13:05:46.493Z,39.08
2018-07-13T13:08:14.404Z,38.13
2018-07-13T13:10:44.346Z,37.80
2018-07-13T13:13:14.000Z,37.95
2018-07-13T13:15:42.044Z,38.21
2018-07-13T13:18:09.982Z,38.91
2018-07-13T13:20:37.885Z,38.38
2018-07-13T13:23:06.272Z,39.65
2018-07-13T13:25:34.339Z,39.89
2018-07-13T13:28:02.265Z,38.25
2018-07-13T13:30:31.053Z,37.87
2018-07-13T13:32:59.392Z,38.09
2018-07-13T13:35:27.408Z,37.26
2018-07-13T13:37:55.328Z,37.90
2018-07-13T13:40:23.286Z,36.87
2018-07-13T13:42:51.223Z,36.79
2018-07-13T13:45:19.130Z,36.84
2018-07-13T13:47:47.092Z,37.40
2018-07-13T13:50:15.086Z,36.67
2018-07-13T13:52:43.083Z,38.67
2018-07-13T13:55:11.074Z,37.64
2018-07-13T13:57:39.044Z,37.97
2018-07-13T14:00:06.987Z,39.49
2018-07-13T14:02:34.915Z,38.81
2018-07-13T14:05:02.993Z,38.18
2018-07-13T14:07:30.983Z,39.69
2018-07-13T14:09:58.991Z,40.40
2018-07-13T14:12:27.000Z,40.32
2018-07-13T14:14:54.985Z,39.02
2018-07-13T14:17:23.002Z,38.46
2018-07-13T14:19:50.990Z,36.29
2018-07-13T14:22:18.918Z,37.92
2018-07-13T14:24:46.963Z,38.54
2018-07-13T14:27:15.003Z,38.34
2018-07-13T14:29:44.154Z,39.98
2018-07-13T14:32:12.465Z,39.54
2018-07-13T14:34:40.606Z,37.73
2018-07-13T14:37:08.651Z,38.79
2018-07-13T14:39:36.755Z,39.92
2018-07-13T14:42:06.865Z,41.03
2018-07-13T14:44:35.008Z,39.67
2018-07-13T14:47:03.342Z,40.91
2018-07-13T14:49:31.835Z,41.53
2018-07-13T14:51:59.817Z,41.67
2018-07-13T14:54:39.212Z,41.06
2018-07-13T14:57:15.309Z,41.40
2018-07-13T14:59:47.016Z,41.69
2018-07-13T15:02:15.179Z,41.10
2018-07-13T15:04:43.239Z,41.10
2018-07-13T15:07:11.669Z,39.87
2018-07-13T15:09:39.713Z,39.65
2018-07-13T15:12:09.080Z,39.05
2018-07-13T15:14:37.559Z,38.21
2018-07-13T15:17:05.751Z,38.54
2018-07-13T15:19:33.766Z,38.58
2018-07-13T15:22:01.834Z,39.60
2018-07-13T15:24:29.777Z,39.84
2018-07-13T15:26:57.980Z,40.47
2018-07-13T15:29:25.939Z,39.65
2018-07-13T15:31:53.947Z,39.58
2018-07-13T15:34:22.128Z,41.10
2018-07-13T15:36:50.206Z,40.13
2018-07-13T15:39:22.775Z,41.17
2018-07-13T15:41:50.906Z,39.63
2018-07-13T15:44:19.018Z,38.71
2018-07-13T15:46:47.085Z,38.83
2018-07-13T15:49:15.088Z,40.43
2018-07-13T15:51:43.119Z,39.26
2018-07-13T15:54:11.173Z,39.24
2018-07-13T15:56:39.335Z,39.43
2018-07-13T15:59:07.357Z,38.63
2018-07-13T16:01:35.471Z,39.81
2018-07-13T16:04:03.774Z,40.74
2018-07-13T16:06:32.698Z,41.80
2018-07-13T16:09:00.664Z,42.49
2018-07-13T16:11:28.691Z,43.77
2018-07-13T16:13:56.666Z,44.67
2018-07-13T16:16:24.648Z,44.61
2018-07-13T16:18:52.823Z,44.18
2018-07-13T16:21:20.930Z,45.24
2018-07-13T16:23:49.069Z,45.89
2018-07-13T16:26:16.973Z,45.50
2018-07-13T16:28:45.136Z,44.83
2018-07-13T16:31:13.090Z,44.76
2018-07-13T16:33:41.207Z,44.93
2018-07-13T16:36:10.407Z,44.83
2018-07-13T16:38:39.170Z,43.63
2018-07-13T16:41:07.264Z,43.76
2018-07-13T16:43:35.319Z,44.03
2018-07-13T16:46:03.495Z,43.92
2018-07-13T16:48:31.622Z,44.11
2018-07-13T16:50:59.734Z,45.40
2018-07-13T16:53:28.058Z,45.03
2018-07-13T16:55:56.167Z,45.94
2018-07-13T16:58:24.134Z,44.97
2018-07-13T17:00:52.256Z,45.16
2018-07-13T17:03:20.386Z,47.58
2018-07-13T17:05:48.429Z,46.55
2018-07-13T17:08:16.496Z,47.47
2018-07-13T17:10:44.617Z,48.28
2018-07-13T17:13:12.728Z,50.32
2018-07-13T17:15:40.999Z,49.64
2018-07-13T17:18:09.073Z,48.93
2018-07-13T17:20:37.360Z,47.25
2018-07-13T17:23:05.997Z,49.41
2018-07-13T17:25:34.052Z,48.36
2018-07-13T17:28:02.076Z,49.41
2018-07-13T17:30:30.077Z,48.51
2018-07-13T17:32:58.071Z,49.11
2018-07-13T17:35:26.097Z,50.13
2018-07-13T17:37:54.090Z,50.44
2018-07-13T17:40:22.021Z,50.64
2018-07-13T17:42:50.107Z,49.71
2018-07-13T17:45:18.513Z,50.39
2018-07-13T17:47:46.547Z,49.54
2018-07-13T17:50:14.609Z,49.70
2018-07-13T17:52:42.651Z,50.34
2018-07-13T17:55:10.649Z,50.72
2018-07-13T17:57:38.626Z,50.56
2018-07-13T18:00:07.465Z,50.91
2018-07-13T18:02:35.698Z,51.59
2018-07-13T18:05:03.879Z,50.92
2018-07-13T18:07:31.980Z,52.02
2018-07-13T18:10:06.797Z,52.00
2018-07-13T18:12:34.787Z,52.20
2018-07-13T18:15:03.153Z,53.50
2018-07-13T18:17:31.242Z,53.66
2018-07-13T18:19:59.291Z,54.90
2018-07-13T18:22:27.267Z,55.16
2018-07-13T18:24:55.305Z,55.69
2018-07-13T18:27:23.828Z,55.77
2018-07-13T18:29:51.818Z,56.64
2018-07-13T18:32:19.860Z,57.39
2018-07-13T18:34:47.915Z,57.37
2018-07-13T18:37:15.983Z,58.07
2018-07-13T18:39:44.092Z,58.24
2018-07-13T18:42:12.161Z,59.16
2018-07-13T18:44:41.172Z,59.00
2018-07-13T18:47:09.505Z,59.98
2018-07-13T18:49:37.495Z,59.68
2018-07-13T18:52:06.116Z,60.08
2018-07-13T18:54:34.265Z,60.78
2018-07-13T18:57:02.445Z,61.58
2018-07-13T18:59:30.594Z,62.21
2018-07-13T19:01:58.998Z,62.48
2018-07-13T19:04:27.173Z,62.07
2018-07-13T19:06:55.289Z,63.00
2018-07-13T19:09:23.327Z,63.36
2018-07-13T19:11:51.338Z,63.82
2018-07-13T19:14:19.257Z,64.19
2018-07-13T19:16:47.323Z,63.76
2018-07-13T19:19:15.573Z,63.94
2018-07-13T19:21:43.560Z,63.96
2018-07-13T19:24:11.585Z,64.48
2018-07-13T19:26:39.546Z,63.91
2018-07-13T19:29:07.582Z,64.70
2018-07-13T19:31:35.563Z,64.01
2018-07-13T19:34:03.580Z,64.57
2018-07-13T19:36:31.654Z,63.98
2018-07-13T19:38:59.624Z,63.67
2018-07-13T19:41:27.736Z,64.28
2018-07-13T19:43:55.796Z,65.30
2018-07-13T19:46:23.778Z,66.20
2018-07-13T19:48:51.818Z,66.82
2018-07-13T19:51:19.987Z,67.83
2018-07-13T19:53:54.304Z,67.58
2018-07-13T19:56:23.393Z,67.63
2018-07-13T19:58:51.897Z,67.79
2018-07-13T20:01:19.970Z,67.77
2018-07-13T20:03:47.932Z,67.79
2018-07-13T20:06:15.912Z,67.71
2018-07-13T20:08:44.020Z,67.81
2018-07-13T20:11:12.118Z,67.17
2018-07-13T20:13:40.329Z,66.25
2018-07-13T20:16:08.526Z,67.57
2018-07-13T20:18:36.514Z,68.05
2018-07-13T20:21:04.436Z,68.23
2018-07-13T20:23:32.798Z,68.52
2018-07-13T20:26:00.796Z,67.59
2018-07-13T20:28:28.837Z,67.39
2018-07-13T20:30:56.867Z,67.13
2018-07-13T20:33:24.926Z,66.92
2018-07-13T20:35:52.884Z,67.71
2018-07-13T20:38:20.966Z,68.21
2018-07-13T20:40:49.020Z,68.14
2018-07-13T20:43:16.950Z,68.63
2018-07-13T20:45:45.058Z,68.20
2018-07-13T20:48:13.058Z,68.50
2018-07-13T20:50:41.093Z,69.21
2018-07-13T20:53:09.171Z,69.21
2018-07-13T20:55:37.248Z,69.02
2018-07-13T20:58:05.238Z,69.50
2018-07-13T21:00:33.350Z,69.20
2018-07-13T21:03:01.622Z,69.45
2018-07-13T21:05:29.503Z,69.74
2018-07-13T21:07:57.536Z,69.45
2018-07-13T21:10:26.578Z,69.35
2018-07-13T21:12:55.331Z,67.00
2018-07-13T21:15:23.426Z,66.51
2018-07-13T21:17:52.916Z,66.03
2018-07-13T21:20:21.664Z,65.62
2018-07-13T21:22:50.341Z,65.58
2018-07-13T21:25:19.650Z,64.39
2018-07-13T21:27:48.714Z,63.90
2018-07-13T21:30:17.065Z,63.03
2018-07-13T21:32:46.347Z,63.01
2018-07-13T21:35:16.490Z,63.81
2018-07-13T21:37:46.817Z,64.10
2018-07-13T21:40:15.754Z,64.28
2018-07-13T21:42:44.382Z,62.77
2018-07-13T21:45:13.580Z,63.75
2018-07-13T21:47:42.393Z,61.84
2018-07-13T21:50:11.063Z,63.17
2018-07-13T21:52:40.752Z,62.38
2018-07-13T21:55:09.546Z,62.86
2018-07-13T21:57:38.311Z,63.75
2018-07-13T22:00:06.914Z,63.88
2018-07-13T22:02:38.068Z,60.63
2018-07-13T22:05:07.692Z,60.17
2018-07-13T22:07:37.136Z,60.93
2018-07-13T22:10:05.218Z,59.36
2018-07-13T22:12:33.206Z,59.32
2018-07-13T22:15:01.228Z,59.61
2018-07-13T22:17:29.226Z,58.10
2018-07-13T22:19:57.324Z,58.76
2018-07-13T22:22:25.725Z,57.54
2018-07-13T22:24:53.670Z,57.65
2018-07-13T22:27:23.715Z,56.88
2018-07-13T22:29:51.773Z,57.33
2018-07-13T22:32:19.760Z,55.84
2018-07-13T22:34:47.823Z,54.41
2018-07-13T22:37:15.860Z,54.79
2018-07-13T22:39:43.875Z,54.31
2018-07-13T22:42:11.936Z,54.40
2018-07-13T22:44:40.003Z,53.68
2018-07-13T22:47:08.018Z,53.60
2018-07-13T22:49:36.046Z,53.06
2018-07-13T22:52:04.180Z,53.04
2018-07-13T22:54:32.114Z,53.20
2018-07-13T22:57:00.263Z,52.84
2018-07-13T22:59:28.254Z,52.95
2018-07-13T23:01:56.395Z,52.39
2018-07-13T23:04:24.481Z,51.91
2018-07-13T23:06:52.492Z,52.33
2018-07-13T23:09:20.471Z,53.38
2018-07-13T23:11:48.528Z,52.97
2018-07-13T23:14:16.548Z,52.11
2018-07-13T23:16:44.536Z,53.28
2018-07-13T23:19:12.591Z,53.24
2018-07-13T23:21:40.679Z,52.76
2018-07-13T23:24:08.970Z,53.79
2018-07-13T23:26:37.143Z,53.57
2018-07-13T23:29:05.196Z,53.48
2018-07-13T23:31:33.322Z,53.79
2018-07-13T23:34:01.327Z,53.68
2018-07-13T23:36:29.259Z,53.16
2018-07-13T23:38:57.184Z,53.45
2018-07-13T23:41:25.169Z,53.08
2018-07-13T23:43:53.596Z,53.42
2018-07-13T23:46:21.621Z,53.07
2018-07-13T23:48:49.535Z,53.25
2018-07-13T23:51:17.491Z,52.63
2018-07-13T23:53:45.415Z,52.57
2018-07-13T23:56:13.456Z,51.77
2018-07-13T23:58:41.449Z,51.68
